SAA313 FAOR-FACT
Flight info
| Callsign | SAA313 |
|---|---|
| Flight time | 1h 46m |
| Altitude | 40000 |
| Route | RAGUL3A RAGUL UQ10 DUMDO UZ26 ERDAS ERDAS1C |
| Aircraft | A343/H-SDE2E3FGHIJ4J5M1RWXY/LB1D1 |
Departure
| Time | 2026-05-05 05:47 |
|---|---|
| Airport | O.R. Tambo International Airport (FAOR) |
Arrival
| Time | 2026-05-05 07:33 |
|---|---|
| Airport | Cape Town International Airport (FACT) |
| Time | Latitude | Longitude | Altitude | Speed | Heading |
|---|---|---|---|---|---|
| 2026-05-05 05:11 | -26.13289 | 28.23309 | 5551 ft | 0 kts | 276° |
| 2026-05-05 05:38 | -26.13288 | 28.23309 | 5551 ft | 0 kts | 276° |
| 2026-05-05 05:38 | -26.13290 | 28.23328 | 5554 ft | 4 kts | 276° |
| 2026-05-05 05:39 | -26.13293 | 28.23358 | 5550 ft | 4 kts | 276° |
| 2026-05-05 05:39 | -26.13293 | 28.23385 | 5549 ft | 4 kts | 234° |
| 2026-05-05 05:39 | -26.13276 | 28.23397 | 5553 ft | 1 kts | 186° |
| 2026-05-05 05:39 | -26.13252 | 28.23400 | 5552 ft | 4 kts | 186° |
| 2026-05-05 05:40 | -26.13247 | 28.23401 | 5554 ft | 0 kts | 186° |
| 2026-05-05 05:42 | -26.13249 | 28.23400 | 5554 ft | 3 kts | 186° |
| 2026-05-05 05:42 | -26.13310 | 28.23393 | 5551 ft | 11 kts | 186° |
| 2026-05-05 05:42 | -26.13387 | 28.23382 | 5553 ft | 11 kts | 190° |
| 2026-05-05 05:43 | -26.13469 | 28.23368 | 5554 ft | 14 kts | 186° |
| 2026-05-05 05:43 | -26.13582 | 28.23355 | 5554 ft | 18 kts | 186° |
| 2026-05-05 05:43 | -26.13707 | 28.23340 | 5555 ft | 18 kts | 186° |
| 2026-05-05 05:43 | -26.13833 | 28.23324 | 5555 ft | 18 kts | 193° |
| 2026-05-05 05:44 | -26.13953 | 28.23289 | 5558 ft | 17 kts | 196° |
| 2026-05-05 05:44 | -26.14081 | 28.23245 | 5557 ft | 22 kts | 197° |
| 2026-05-05 05:44 | -26.14228 | 28.23200 | 5557 ft | 21 kts | 188° |
| 2026-05-05 05:44 | -26.14354 | 28.23225 | 5565 ft | 17 kts | 166° |
| 2026-05-05 05:45 | -26.14471 | 28.23259 | 5565 ft | 17 kts | 165° |
| 2026-05-05 05:45 | -26.14574 | 28.23294 | 5569 ft | 13 kts | 149° |
| 2026-05-05 05:45 | -26.14616 | 28.23377 | 5570 ft | 13 kts | 111° |
| 2026-05-05 05:45 | -26.14609 | 28.23445 | 5570 ft | 4 kts | 24° |
| 2026-05-05 05:46 | -26.14571 | 28.23458 | 5571 ft | 12 kts | 17° |
| 2026-05-05 05:46 | -26.14358 | 28.23525 | 5569 ft | 58 kts | 15° |
| 2026-05-05 05:46 | -26.13791 | 28.23699 | 5566 ft | 109 kts | 15° |
| 2026-05-05 05:46 | -26.12914 | 28.23969 | 5550 ft | 150 kts | 15° |
| 2026-05-05 05:47 | -26.11793 | 28.24310 | 5603 ft | 181 kts | 14° |
| 2026-05-05 05:47 | -26.10661 | 28.24725 | 6401 ft | 166 kts | 13° |
| 2026-05-05 05:47 | -26.09527 | 28.25062 | 6955 ft | 173 kts | 4° |
| 2026-05-05 05:47 | -26.08285 | 28.24853 | 7203 ft | 194 kts | 335° |
| 2026-05-05 05:48 | -26.07027 | 28.24145 | 7582 ft | 215 kts | 329° |
| 2026-05-05 05:48 | -26.05639 | 28.23268 | 7920 ft | 241 kts | 327° |
| 2026-05-05 05:48 | -26.04466 | 28.21907 | 8635 ft | 251 kts | 300° |
| 2026-05-05 05:48 | -26.04044 | 28.20044 | 9536 ft | 260 kts | 274° |
| 2026-05-05 05:49 | -26.04325 | 28.18027 | 10386 ft | 270 kts | 260° |
| 2026-05-05 05:49 | -26.05128 | 28.16034 | 10812 ft | 296 kts | 246° |
| 2026-05-05 05:49 | -26.06306 | 28.14041 | 11158 ft | 319 kts | 240° |
| 2026-05-05 05:49 | -26.07680 | 28.12039 | 11708 ft | 331 kts | 237° |
| 2026-05-05 05:50 | -26.09179 | 28.10057 | 12377 ft | 339 kts | 234° |
| 2026-05-05 05:50 | -26.10763 | 28.08085 | 13039 ft | 345 kts | 233° |
| 2026-05-05 05:50 | -26.12399 | 28.06107 | 13818 ft | 348 kts | 233° |
| 2026-05-05 05:50 | -26.14052 | 28.04127 | 14534 ft | 351 kts | 233° |
| 2026-05-05 05:51 | -26.15744 | 28.02094 | 15207 ft | 355 kts | 233° |
| 2026-05-05 05:51 | -26.17423 | 28.00061 | 15862 ft | 360 kts | 233° |
| 2026-05-05 05:51 | -26.19128 | 27.97988 | 16540 ft | 364 kts | 234° |
| 2026-05-05 05:51 | -26.20839 | 27.95897 | 17203 ft | 368 kts | 234° |
| 2026-05-05 05:52 | -26.22565 | 27.93782 | 17853 ft | 372 kts | 234° |
| 2026-05-05 05:52 | -26.24216 | 27.91755 | 18476 ft | 376 kts | 234° |
| 2026-05-05 05:52 | -26.25959 | 27.89617 | 19052 ft | 379 kts | 234° |
| 2026-05-05 05:52 | -26.27747 | 27.87422 | 19611 ft | 384 kts | 234° |
| 2026-05-05 05:53 | -26.29547 | 27.85211 | 20177 ft | 388 kts | 234° |
| 2026-05-05 05:53 | -26.31366 | 27.82977 | 20700 ft | 391 kts | 234° |
| 2026-05-05 05:53 | -26.33204 | 27.80719 | 21261 ft | 395 kts | 234° |
| 2026-05-05 05:53 | -26.35059 | 27.78439 | 21795 ft | 399 kts | 234° |
| 2026-05-05 05:54 | -26.36926 | 27.76144 | 22385 ft | 401 kts | 235° |
| 2026-05-05 05:54 | -26.38807 | 27.73831 | 23010 ft | 403 kts | 235° |
| 2026-05-05 05:54 | -26.40696 | 27.71506 | 23503 ft | 406 kts | 235° |
| 2026-05-05 05:54 | -26.42603 | 27.69157 | 23972 ft | 410 kts | 236° |
| 2026-05-05 05:55 | -26.44516 | 27.66799 | 24422 ft | 412 kts | 236° |
| 2026-05-05 05:55 | -26.46440 | 27.64427 | 24894 ft | 413 kts | 236° |
| 2026-05-05 05:55 | -26.48372 | 27.62045 | 25360 ft | 414 kts | 237° |
| 2026-05-05 05:55 | -26.50311 | 27.59652 | 25802 ft | 416 kts | 237° |
| 2026-05-05 05:56 | -26.52255 | 27.57250 | 26228 ft | 418 kts | 237° |
| 2026-05-05 05:56 | -26.54207 | 27.54837 | 26658 ft | 420 kts | 237° |
| 2026-05-05 05:56 | -26.56170 | 27.52410 | 27091 ft | 422 kts | 238° |
| 2026-05-05 05:56 | -26.58142 | 27.49970 | 27482 ft | 424 kts | 238° |
| 2026-05-05 05:57 | -26.60119 | 27.47521 | 27883 ft | 425 kts | 238° |
| 2026-05-05 05:57 | -26.62108 | 27.45056 | 28272 ft | 428 kts | 238° |
| 2026-05-05 05:57 | -26.64109 | 27.42574 | 28633 ft | 431 kts | 238° |
| 2026-05-05 05:57 | -26.66123 | 27.40076 | 29014 ft | 433 kts | 239° |
| 2026-05-05 05:58 | -26.68140 | 27.37574 | 29391 ft | 435 kts | 239° |
| 2026-05-05 05:58 | -26.70170 | 27.35055 | 29761 ft | 436 kts | 239° |
| 2026-05-05 05:58 | -26.72205 | 27.32527 | 30108 ft | 439 kts | 239° |
| 2026-05-05 05:58 | -26.74248 | 27.29989 | 30475 ft | 440 kts | 239° |
| 2026-05-05 05:59 | -26.76296 | 27.27444 | 30770 ft | 441 kts | 239° |
| 2026-05-05 05:59 | -26.78347 | 27.24893 | 31067 ft | 442 kts | 239° |
| 2026-05-05 05:59 | -26.80408 | 27.22327 | 31355 ft | 444 kts | 239° |
| 2026-05-05 05:59 | -26.82475 | 27.19753 | 31634 ft | 445 kts | 239° |
| 2026-05-05 06:00 | -26.84547 | 27.17169 | 31941 ft | 446 kts | 239° |
| 2026-05-05 06:00 | -26.86625 | 27.14575 | 32202 ft | 448 kts | 239° |
| 2026-05-05 06:00 | -26.88707 | 27.11979 | 32543 ft | 447 kts | 240° |
| 2026-05-05 06:00 | -26.90783 | 27.09394 | 32946 ft | 445 kts | 240° |
| 2026-05-05 06:01 | -26.92850 | 27.06818 | 33331 ft | 443 kts | 240° |
| 2026-05-05 06:01 | -26.94906 | 27.04253 | 33703 ft | 442 kts | 240° |
| 2026-05-05 06:01 | -26.96979 | 27.01713 | 34058 ft | 443 kts | 239° |
| 2026-05-05 06:01 | -26.99159 | 26.99250 | 34372 ft | 446 kts | 237° |
| 2026-05-05 06:02 | -27.01392 | 26.96833 | 34633 ft | 447 kts | 237° |
| 2026-05-05 06:02 | -27.03641 | 26.94428 | 34908 ft | 447 kts | 237° |
| 2026-05-05 06:02 | -27.05887 | 26.92020 | 35156 ft | 446 kts | 237° |
| 2026-05-05 06:02 | -27.08122 | 26.89602 | 35417 ft | 445 kts | 237° |
| 2026-05-05 06:03 | -27.10334 | 26.87186 | 35653 ft | 445 kts | 238° |
| 2026-05-05 06:03 | -27.12553 | 26.84745 | 35912 ft | 446 kts | 238° |
| 2026-05-05 06:03 | -27.14759 | 26.82308 | 36138 ft | 446 kts | 238° |
| 2026-05-05 06:03 | -27.16970 | 26.79862 | 36398 ft | 445 kts | 238° |
| 2026-05-05 06:04 | -27.19174 | 26.77423 | 36651 ft | 445 kts | 238° |
| 2026-05-05 06:04 | -27.21372 | 26.74988 | 36884 ft | 444 kts | 239° |
| 2026-05-05 06:04 | -27.23573 | 26.72550 | 37105 ft | 444 kts | 239° |
| 2026-05-05 06:04 | -27.25775 | 26.70108 | 37328 ft | 444 kts | 239° |
| 2026-05-05 06:05 | -27.27966 | 26.67679 | 37546 ft | 444 kts | 239° |
| 2026-05-05 06:05 | -27.30165 | 26.65239 | 37769 ft | 443 kts | 239° |
| 2026-05-05 06:05 | -27.32362 | 26.62800 | 38007 ft | 443 kts | 239° |
| 2026-05-05 06:05 | -27.34554 | 26.60366 | 38215 ft | 443 kts | 239° |
| 2026-05-05 06:06 | -27.36741 | 26.57935 | 38430 ft | 442 kts | 239° |
| 2026-05-05 06:06 | -27.38925 | 26.55506 | 38664 ft | 442 kts | 239° |
| 2026-05-05 06:06 | -27.41115 | 26.53069 | 38839 ft | 442 kts | 239° |
| 2026-05-05 06:06 | -27.43304 | 26.50632 | 39025 ft | 442 kts | 239° |
| 2026-05-05 06:07 | -27.46933 | 26.46589 | 39291 ft | 442 kts | 239° |
| 2026-05-05 06:07 | -27.49116 | 26.44156 | 39467 ft | 441 kts | 239° |
| 2026-05-05 06:07 | -27.51292 | 26.41729 | 39624 ft | 440 kts | 239° |
| 2026-05-05 06:08 | -27.53467 | 26.39301 | 39786 ft | 440 kts | 239° |
| 2026-05-05 06:08 | -27.55637 | 26.36879 | 39935 ft | 439 kts | 239° |
| 2026-05-05 06:08 | -27.59989 | 26.32004 | 40034 ft | 443 kts | 239° |
| 2026-05-05 06:09 | -27.64361 | 26.27107 | 40027 ft | 443 kts | 239° |
| 2026-05-05 06:09 | -27.68727 | 26.22222 | 40028 ft | 442 kts | 239° |
| 2026-05-05 06:10 | -27.73117 | 26.17298 | 40021 ft | 442 kts | 239° |
| 2026-05-05 06:10 | -27.77443 | 26.12436 | 40014 ft | 442 kts | 239° |
| 2026-05-05 06:11 | -27.81794 | 26.07541 | 40012 ft | 442 kts | 239° |
| 2026-05-05 06:11 | -27.86152 | 26.02633 | 40012 ft | 442 kts | 239° |
| 2026-05-05 06:12 | -27.90512 | 25.97718 | 40010 ft | 442 kts | 239° |
| 2026-05-05 06:12 | -27.94869 | 25.92799 | 40022 ft | 443 kts | 239° |
| 2026-05-05 06:13 | -27.99242 | 25.87852 | 40008 ft | 446 kts | 239° |
| 2026-05-05 06:13 | -28.03669 | 25.82838 | 40005 ft | 453 kts | 239° |
| 2026-05-05 06:14 | -28.08150 | 25.77751 | 40005 ft | 460 kts | 238° |
| 2026-05-05 06:14 | -28.12706 | 25.72574 | 40044 ft | 467 kts | 238° |
| 2026-05-05 06:15 | -28.17334 | 25.67312 | 39994 ft | 475 kts | 238° |
| 2026-05-05 06:15 | -28.21995 | 25.62022 | 40004 ft | 474 kts | 238° |
| 2026-05-05 06:16 | -28.26649 | 25.56733 | 39996 ft | 473 kts | 238° |
| 2026-05-05 06:16 | -28.31295 | 25.51436 | 39993 ft | 474 kts | 238° |
| 2026-05-05 06:17 | -28.35938 | 25.46132 | 39987 ft | 473 kts | 238° |
| 2026-05-05 06:17 | -28.40576 | 25.40826 | 39989 ft | 473 kts | 238° |
| 2026-05-05 06:18 | -28.45212 | 25.35516 | 39985 ft | 473 kts | 238° |
| 2026-05-05 06:18 | -28.49849 | 25.30198 | 39998 ft | 473 kts | 237° |
| 2026-05-05 06:19 | -28.54452 | 25.24913 | 39974 ft | 473 kts | 237° |
| 2026-05-05 06:19 | -28.59081 | 25.19590 | 39974 ft | 473 kts | 237° |
| 2026-05-05 06:20 | -28.63715 | 25.14262 | 39975 ft | 473 kts | 237° |
| 2026-05-05 06:20 | -28.68335 | 25.08931 | 39971 ft | 473 kts | 238° |
| 2026-05-05 06:21 | -28.72959 | 25.03588 | 39971 ft | 473 kts | 238° |
| 2026-05-05 06:21 | -28.77581 | 24.98244 | 39971 ft | 473 kts | 237° |
| 2026-05-05 06:22 | -28.82193 | 24.92905 | 39967 ft | 472 kts | 237° |
| 2026-05-05 06:22 | -28.86797 | 24.87569 | 39969 ft | 472 kts | 237° |
| 2026-05-05 06:23 | -28.91396 | 24.82229 | 39963 ft | 472 kts | 237° |
| 2026-05-05 06:23 | -28.96000 | 24.76877 | 39967 ft | 472 kts | 237° |
| 2026-05-05 06:24 | -29.00599 | 24.71525 | 39963 ft | 472 kts | 237° |
| 2026-05-05 06:24 | -29.05194 | 24.66170 | 39963 ft | 472 kts | 238° |
| 2026-05-05 06:25 | -29.09786 | 24.60810 | 39957 ft | 472 kts | 238° |
| 2026-05-05 06:25 | -29.14376 | 24.55447 | 39956 ft | 472 kts | 238° |
| 2026-05-05 06:26 | -29.18964 | 24.50077 | 39959 ft | 472 kts | 238° |
| 2026-05-05 06:26 | -29.23556 | 24.44695 | 39955 ft | 473 kts | 238° |
| 2026-05-05 06:27 | -29.30438 | 24.36617 | 39973 ft | 473 kts | 237° |
| 2026-05-05 06:28 | -29.35033 | 24.31212 | 39958 ft | 474 kts | 237° |
| 2026-05-05 06:28 | -29.39632 | 24.25797 | 39963 ft | 474 kts | 237° |
| 2026-05-05 06:29 | -29.44229 | 24.20378 | 39962 ft | 474 kts | 238° |
| 2026-05-05 06:29 | -29.48823 | 24.14954 | 39961 ft | 474 kts | 238° |
| 2026-05-05 06:30 | -29.53413 | 24.09526 | 39967 ft | 474 kts | 237° |
| 2026-05-05 06:30 | -29.58010 | 24.04081 | 39976 ft | 475 kts | 237° |
| 2026-05-05 06:31 | -29.62620 | 23.98614 | 39970 ft | 476 kts | 237° |
| 2026-05-05 06:31 | -29.67230 | 23.93142 | 39970 ft | 477 kts | 237° |
| 2026-05-05 06:32 | -29.71842 | 23.87661 | 39976 ft | 476 kts | 237° |
| 2026-05-05 06:32 | -29.76445 | 23.82181 | 39977 ft | 476 kts | 237° |
| 2026-05-05 06:33 | -29.81049 | 23.76691 | 39975 ft | 476 kts | 237° |
| 2026-05-05 06:33 | -29.85650 | 23.71196 | 39997 ft | 476 kts | 237° |
| 2026-05-05 06:34 | -29.90250 | 23.65695 | 39981 ft | 477 kts | 237° |
| 2026-05-05 06:34 | -29.94852 | 23.60184 | 39981 ft | 477 kts | 237° |
| 2026-05-05 06:35 | -29.99448 | 23.54674 | 39982 ft | 477 kts | 237° |
| 2026-05-05 06:35 | -30.04018 | 23.49187 | 39983 ft | 477 kts | 237° |
| 2026-05-05 06:36 | -30.08638 | 23.43631 | 39988 ft | 477 kts | 237° |
| 2026-05-05 06:36 | -30.13201 | 23.38136 | 39983 ft | 476 kts | 237° |
| 2026-05-05 06:37 | -30.17783 | 23.32610 | 39979 ft | 476 kts | 237° |
| 2026-05-05 06:37 | -30.22393 | 23.27041 | 39980 ft | 477 kts | 237° |
| 2026-05-05 06:38 | -30.26948 | 23.21531 | 39976 ft | 477 kts | 237° |
| 2026-05-05 06:38 | -30.31562 | 23.15942 | 39978 ft | 477 kts | 237° |
| 2026-05-05 06:39 | -30.36112 | 23.10424 | 40027 ft | 477 kts | 237° |
| 2026-05-05 06:39 | -30.40700 | 23.04847 | 39972 ft | 480 kts | 237° |
| 2026-05-05 06:40 | -30.45336 | 22.99205 | 39990 ft | 480 kts | 237° |
| 2026-05-05 06:40 | -30.49913 | 22.93633 | 39973 ft | 480 kts | 237° |
| 2026-05-05 06:41 | -30.54515 | 22.88020 | 39981 ft | 481 kts | 237° |
| 2026-05-05 06:41 | -30.59129 | 22.82381 | 39975 ft | 482 kts | 237° |
| 2026-05-05 06:42 | -30.63745 | 22.76732 | 40002 ft | 482 kts | 237° |
| 2026-05-05 06:42 | -30.68366 | 22.71068 | 39980 ft | 484 kts | 237° |
| 2026-05-05 06:43 | -30.72990 | 22.65393 | 39973 ft | 484 kts | 237° |
| 2026-05-05 06:43 | -30.77626 | 22.59697 | 39976 ft | 484 kts | 237° |
| 2026-05-05 06:44 | -30.82245 | 22.54012 | 39981 ft | 484 kts | 237° |
| 2026-05-05 06:44 | -30.86870 | 22.48310 | 39994 ft | 484 kts | 237° |
| 2026-05-05 06:45 | -30.91501 | 22.42591 | 39990 ft | 486 kts | 236° |
| 2026-05-05 06:45 | -30.96136 | 22.36840 | 39988 ft | 489 kts | 236° |
| 2026-05-05 06:46 | -31.00788 | 22.31048 | 39993 ft | 489 kts | 236° |
| 2026-05-05 06:46 | -31.05437 | 22.25255 | 39991 ft | 489 kts | 236° |
| 2026-05-05 06:47 | -31.10081 | 22.19465 | 40001 ft | 489 kts | 236° |
| 2026-05-05 06:47 | -31.14726 | 22.13663 | 40002 ft | 489 kts | 236° |
| 2026-05-05 06:48 | -31.19363 | 22.07860 | 40028 ft | 489 kts | 235° |
| 2026-05-05 06:48 | -31.24003 | 22.02047 | 40016 ft | 489 kts | 235° |
| 2026-05-05 06:49 | -31.28638 | 21.96232 | 40015 ft | 489 kts | 235° |
| 2026-05-05 06:49 | -31.33274 | 21.90405 | 40025 ft | 489 kts | 235° |
| 2026-05-05 06:50 | -31.37906 | 21.84574 | 40027 ft | 489 kts | 235° |
| 2026-05-05 06:50 | -31.42531 | 21.78742 | 40062 ft | 489 kts | 234° |
| 2026-05-05 06:51 | -31.46373 | 21.73892 | 40037 ft | 488 kts | 234° |
| 2026-05-05 06:51 | -31.50996 | 21.68048 | 40039 ft | 488 kts | 234° |
| 2026-05-05 06:52 | -31.55609 | 21.62206 | 40037 ft | 489 kts | 234° |
| 2026-05-05 06:52 | -31.60228 | 21.56346 | 40034 ft | 489 kts | 234° |
| 2026-05-05 06:53 | -31.64840 | 21.50487 | 40040 ft | 489 kts | 234° |
| 2026-05-05 06:53 | -31.69454 | 21.44617 | 40042 ft | 489 kts | 234° |
| 2026-05-05 06:54 | -31.74069 | 21.38737 | 40048 ft | 489 kts | 234° |
| 2026-05-05 06:54 | -31.78678 | 21.32855 | 40048 ft | 489 kts | 234° |
| 2026-05-05 06:55 | -31.83283 | 21.26967 | 40053 ft | 489 kts | 234° |
| 2026-05-05 06:55 | -31.87887 | 21.21072 | 40061 ft | 489 kts | 234° |
| 2026-05-05 06:56 | -31.92491 | 21.15167 | 40053 ft | 490 kts | 234° |
| 2026-05-05 06:56 | -31.97096 | 21.09251 | 40057 ft | 490 kts | 233° |
| 2026-05-05 06:57 | -32.01698 | 21.03332 | 40062 ft | 489 kts | 233° |
| 2026-05-05 06:57 | -32.06289 | 20.97417 | 40065 ft | 489 kts | 233° |
| 2026-05-05 06:58 | -32.10885 | 20.91485 | 40065 ft | 489 kts | 233° |
| 2026-05-05 06:58 | -32.15446 | 20.85595 | 40070 ft | 477 kts | 233° |
| 2026-05-05 06:59 | -32.19841 | 20.79924 | 40092 ft | 463 kts | 233° |
| 2026-05-05 06:59 | -32.24174 | 20.74292 | 40067 ft | 463 kts | 233° |
| 2026-05-05 07:00 | -32.28506 | 20.68653 | 40070 ft | 464 kts | 233° |
| 2026-05-05 07:00 | -32.32843 | 20.63006 | 40073 ft | 464 kts | 233° |
| 2026-05-05 07:01 | -32.37188 | 20.57347 | 40075 ft | 464 kts | 233° |
| 2026-05-05 07:01 | -32.41523 | 20.51694 | 40071 ft | 464 kts | 233° |
| 2026-05-05 07:02 | -32.45862 | 20.46023 | 40085 ft | 464 kts | 232° |
| 2026-05-05 07:02 | -32.50190 | 20.40357 | 40069 ft | 464 kts | 232° |
| 2026-05-05 07:03 | -32.54524 | 20.34677 | 40067 ft | 465 kts | 232° |
| 2026-05-05 07:03 | -32.58863 | 20.28981 | 40057 ft | 465 kts | 232° |
| 2026-05-05 07:03 | -32.61020 | 20.26147 | 39886 ft | 464 kts | 232° |
| 2026-05-05 07:04 | -32.63180 | 20.23307 | 39658 ft | 462 kts | 232° |
| 2026-05-05 07:04 | -32.65332 | 20.20475 | 39426 ft | 462 kts | 232° |
| 2026-05-05 07:04 | -32.67483 | 20.17641 | 39215 ft | 462 kts | 232° |
| 2026-05-05 07:04 | -32.69637 | 20.14799 | 39007 ft | 463 kts | 232° |
| 2026-05-05 07:05 | -32.71792 | 20.11955 | 38806 ft | 463 kts | 231° |
| 2026-05-05 07:05 | -32.73934 | 20.09126 | 38530 ft | 461 kts | 231° |
| 2026-05-05 07:05 | -32.76073 | 20.06301 | 38066 ft | 459 kts | 232° |
| 2026-05-05 07:05 | -32.78206 | 20.03481 | 37513 ft | 459 kts | 232° |
| 2026-05-05 07:06 | -32.80340 | 20.00655 | 36946 ft | 460 kts | 232° |
| 2026-05-05 07:06 | -32.82478 | 19.97822 | 36357 ft | 461 kts | 232° |
| 2026-05-05 07:06 | -32.84626 | 19.94973 | 35762 ft | 463 kts | 232° |
| 2026-05-05 07:06 | -32.86782 | 19.92109 | 35093 ft | 467 kts | 232° |
| 2026-05-05 07:07 | -32.88958 | 19.89219 | 34396 ft | 470 kts | 232° |
| 2026-05-05 07:07 | -32.91141 | 19.86317 | 33629 ft | 474 kts | 232° |
| 2026-05-05 07:07 | -32.93346 | 19.83383 | 32877 ft | 475 kts | 232° |
| 2026-05-05 07:07 | -32.95555 | 19.80443 | 32122 ft | 477 kts | 232° |
| 2026-05-05 07:08 | -32.97757 | 19.77511 | 31576 ft | 474 kts | 231° |
| 2026-05-05 07:08 | -32.99945 | 19.74597 | 31072 ft | 470 kts | 231° |
| 2026-05-05 07:08 | -33.02116 | 19.71704 | 30549 ft | 467 kts | 231° |
| 2026-05-05 07:08 | -33.04312 | 19.68859 | 29993 ft | 464 kts | 229° |
| 2026-05-05 07:09 | -33.06566 | 19.66122 | 29384 ft | 461 kts | 227° |
| 2026-05-05 07:09 | -33.08847 | 19.63479 | 28976 ft | 455 kts | 225° |
| 2026-05-05 07:09 | -33.11308 | 19.61118 | 28182 ft | 451 kts | 218° |
| 2026-05-05 07:09 | -33.13868 | 19.59037 | 26939 ft | 442 kts | 216° |
| 2026-05-05 07:10 | -33.16479 | 19.57081 | 25357 ft | 444 kts | 214° |
| 2026-05-05 07:10 | -33.19122 | 19.55190 | 23951 ft | 443 kts | 213° |
| 2026-05-05 07:10 | -33.21736 | 19.53353 | 23230 ft | 428 kts | 213° |
| 2026-05-05 07:10 | -33.24275 | 19.51566 | 22717 ft | 422 kts | 213° |
| 2026-05-05 07:11 | -33.26790 | 19.49780 | 22194 ft | 418 kts | 213° |
| 2026-05-05 07:11 | -33.29268 | 19.47999 | 21704 ft | 413 kts | 213° |
| 2026-05-05 07:11 | -33.31675 | 19.46170 | 21216 ft | 408 kts | 215° |
| 2026-05-05 07:11 | -33.34028 | 19.44298 | 20735 ft | 404 kts | 215° |
| 2026-05-05 07:12 | -33.36340 | 19.42427 | 20271 ft | 399 kts | 215° |
| 2026-05-05 07:12 | -33.38592 | 19.40602 | 19965 ft | 390 kts | 215° |
| 2026-05-05 07:12 | -33.40812 | 19.38815 | 19853 ft | 377 kts | 214° |
| 2026-05-05 07:12 | -33.42961 | 19.37094 | 19728 ft | 365 kts | 214° |
| 2026-05-05 07:13 | -33.45045 | 19.35433 | 19571 ft | 355 kts | 214° |
| 2026-05-05 07:13 | -33.47104 | 19.33797 | 19408 ft | 346 kts | 214° |
| 2026-05-05 07:13 | -33.49084 | 19.32224 | 19287 ft | 337 kts | 214° |
| 2026-05-05 07:13 | -33.50987 | 19.30714 | 19104 ft | 329 kts | 214° |
| 2026-05-05 07:14 | -33.52896 | 19.29196 | 18618 ft | 321 kts | 214° |
| 2026-05-05 07:14 | -33.54715 | 19.27749 | 17996 ft | 315 kts | 213° |
| 2026-05-05 07:14 | -33.56562 | 19.26278 | 17620 ft | 315 kts | 213° |
| 2026-05-05 07:14 | -33.58392 | 19.24821 | 17270 ft | 315 kts | 213° |
| 2026-05-05 07:15 | -33.60189 | 19.23388 | 16963 ft | 314 kts | 213° |
| 2026-05-05 07:15 | -33.62029 | 19.21921 | 16625 ft | 313 kts | 213° |
| 2026-05-05 07:15 | -33.63836 | 19.20481 | 16325 ft | 311 kts | 213° |
| 2026-05-05 07:15 | -33.65624 | 19.19055 | 16172 ft | 304 kts | 213° |
| 2026-05-05 07:16 | -33.67341 | 19.17684 | 16058 ft | 297 kts | 213° |
| 2026-05-05 07:16 | -33.69043 | 19.16326 | 15948 ft | 291 kts | 213° |
| 2026-05-05 07:16 | -33.70717 | 19.14993 | 15780 ft | 287 kts | 213° |
| 2026-05-05 07:16 | -33.72364 | 19.13679 | 15475 ft | 282 kts | 213° |
| 2026-05-05 07:17 | -33.73980 | 19.12385 | 15001 ft | 277 kts | 213° |
| 2026-05-05 07:17 | -33.75583 | 19.11098 | 14679 ft | 278 kts | 212° |
| 2026-05-05 07:17 | -33.77196 | 19.09806 | 14453 ft | 278 kts | 212° |
| 2026-05-05 07:17 | -33.78801 | 19.08520 | 14240 ft | 277 kts | 213° |
| 2026-05-05 07:18 | -33.80401 | 19.07237 | 14039 ft | 277 kts | 213° |
| 2026-05-05 07:18 | -33.82005 | 19.05953 | 13815 ft | 276 kts | 212° |
| 2026-05-05 07:18 | -33.83601 | 19.04680 | 13571 ft | 275 kts | 213° |
| 2026-05-05 07:18 | -33.85181 | 19.03412 | 13115 ft | 270 kts | 213° |
| 2026-05-05 07:19 | -33.86732 | 19.02166 | 12667 ft | 266 kts | 213° |
| 2026-05-05 07:19 | -33.88258 | 19.00938 | 12301 ft | 260 kts | 213° |
| 2026-05-05 07:19 | -33.89737 | 18.99747 | 12076 ft | 250 kts | 213° |
| 2026-05-05 07:19 | -33.91175 | 18.98590 | 11816 ft | 250 kts | 213° |
| 2026-05-05 07:20 | -33.92635 | 18.97415 | 11533 ft | 254 kts | 213° |
| 2026-05-05 07:20 | -33.94114 | 18.96227 | 11277 ft | 258 kts | 213° |
| 2026-05-05 07:20 | -33.95624 | 18.95017 | 10986 ft | 262 kts | 213° |
| 2026-05-05 07:20 | -33.97140 | 18.93802 | 10777 ft | 262 kts | 213° |
| 2026-05-05 07:21 | -33.98651 | 18.92584 | 10548 ft | 262 kts | 213° |
| 2026-05-05 07:21 | -34.00163 | 18.91363 | 10308 ft | 261 kts | 213° |
| 2026-05-05 07:21 | -34.01669 | 18.90149 | 10086 ft | 260 kts | 212° |
| 2026-05-05 07:21 | -34.03164 | 18.88944 | 9886 ft | 258 kts | 213° |
| 2026-05-05 07:22 | -34.04648 | 18.87744 | 9547 ft | 257 kts | 213° |
| 2026-05-05 07:22 | -34.06136 | 18.86544 | 9231 ft | 257 kts | 213° |
| 2026-05-05 07:22 | -34.07624 | 18.85347 | 8923 ft | 258 kts | 213° |
| 2026-05-05 07:22 | -34.09145 | 18.84126 | 8389 ft | 267 kts | 213° |
| 2026-05-05 07:23 | -34.10708 | 18.82881 | 7988 ft | 270 kts | 213° |
| 2026-05-05 07:23 | -34.12282 | 18.81636 | 7631 ft | 271 kts | 213° |
| 2026-05-05 07:23 | -34.13858 | 18.80397 | 7264 ft | 271 kts | 213° |
| 2026-05-05 07:23 | -34.15449 | 18.79155 | 6866 ft | 272 kts | 213° |
| 2026-05-05 07:24 | -34.17048 | 18.77918 | 6422 ft | 274 kts | 213° |
| 2026-05-05 07:24 | -34.18693 | 18.76803 | 5720 ft | 267 kts | 201° |
| 2026-05-05 07:24 | -34.20499 | 18.76544 | 5051 ft | 261 kts | 174° |
| 2026-05-05 07:24 | -34.22232 | 18.77042 | 4595 ft | 248 kts | 164° |
| 2026-05-05 07:25 | -34.23818 | 18.77653 | 4298 ft | 231 kts | 166° |
| 2026-05-05 07:25 | -34.25359 | 18.77728 | 3825 ft | 219 kts | 197° |
| 2026-05-05 07:25 | -34.26624 | 18.76811 | 3352 ft | 211 kts | 232° |
| 2026-05-05 07:25 | -34.27187 | 18.75229 | 3058 ft | 206 kts | 267° |
| 2026-05-05 07:26 | -34.26869 | 18.73608 | 2971 ft | 197 kts | 301° |
| 2026-05-05 07:26 | -34.26019 | 18.72306 | 2981 ft | 199 kts | 312° |
| 2026-05-05 07:26 | -34.24961 | 18.71210 | 2978 ft | 201 kts | 322° |
| 2026-05-05 07:26 | -34.23764 | 18.70329 | 2990 ft | 202 kts | 331° |
| 2026-05-05 07:27 | -34.22525 | 18.69597 | 3006 ft | 191 kts | 333° |
| 2026-05-05 07:27 | -34.21362 | 18.68938 | 2991 ft | 181 kts | 333° |
| 2026-05-05 07:27 | -34.20235 | 18.68306 | 2988 ft | 181 kts | 333° |
| 2026-05-05 07:27 | -34.19116 | 18.67616 | 2985 ft | 180 kts | 331° |
| 2026-05-05 07:28 | -34.17941 | 18.67065 | 2985 ft | 182 kts | 340° |
| 2026-05-05 07:28 | -34.16723 | 18.66646 | 2986 ft | 183 kts | 342° |
| 2026-05-05 07:28 | -34.15497 | 18.66236 | 2991 ft | 182 kts | 342° |
| 2026-05-05 07:28 | -34.14321 | 18.65864 | 2983 ft | 167 kts | 342° |
| 2026-05-05 07:29 | -34.13224 | 18.65513 | 2995 ft | 162 kts | 342° |
| 2026-05-05 07:29 | -34.12136 | 18.65155 | 2908 ft | 163 kts | 342° |
| 2026-05-05 07:29 | -34.11042 | 18.64794 | 2685 ft | 162 kts | 342° |
| 2026-05-05 07:29 | -34.09962 | 18.64451 | 2464 ft | 159 kts | 343° |
| 2026-05-05 07:30 | -34.08901 | 18.64114 | 2245 ft | 156 kts | 343° |
| 2026-05-05 07:30 | -34.06892 | 18.63475 | 1836 ft | 138 kts | 343° |
| 2026-05-05 07:30 | -34.06000 | 18.63190 | 1656 ft | 128 kts | 343° |
| 2026-05-05 07:31 | -34.05150 | 18.62919 | 1473 ft | 126 kts | 345° |
| 2026-05-05 07:31 | -34.04296 | 18.62646 | 1304 ft | 127 kts | 345° |
| 2026-05-05 07:31 | -34.03437 | 18.62372 | 1151 ft | 128 kts | 345° |
| 2026-05-05 07:31 | -34.02576 | 18.62099 | 972 ft | 128 kts | 347° |
| 2026-05-05 07:32 | -34.01706 | 18.61832 | 797 ft | 129 kts | 347° |
| 2026-05-05 07:32 | -34.00831 | 18.61553 | 621 ft | 130 kts | 347° |
| 2026-05-05 07:32 | -33.99960 | 18.61262 | 436 ft | 128 kts | 348° |
| 2026-05-05 07:32 | -33.99094 | 18.60997 | 266 ft | 128 kts | 349° |
| 2026-05-05 07:33 | -33.98246 | 18.60721 | 167 ft | 125 kts | 346° |
| 2026-05-05 07:33 | -33.97539 | 18.60500 | 154 ft | 80 kts | 345° |
| 2026-05-05 07:33 | -33.97186 | 18.60392 | 158 ft | 20 kts | 340° |
| 2026-05-05 07:33 | -33.97132 | 18.60330 | 161 ft | 0 kts | 307° |
| 2026-05-05 07:34 | -33.97108 | 18.60272 | 161 ft | 12 kts | 289° |
| 2026-05-05 07:34 | -33.97094 | 18.60219 | 163 ft | 0 kts | 287° |
| 2026-05-05 07:35 | -33.97085 | 18.60183 | 165 ft | 5 kts | 285° |
| 2026-05-05 07:35 | -33.97080 | 18.60160 | 167 ft | 2 kts | 285° |
| 2026-05-05 07:36 | -33.97060 | 18.60068 | 168 ft | 13 kts | 284° |
| 2026-05-05 07:36 | -33.97045 | 18.59997 | 168 ft | 13 kts | 284° |
| 2026-05-05 07:36 | -33.96982 | 18.59926 | 168 ft | 13 kts | 343° |
| 2026-05-05 07:36 | -33.96887 | 18.59895 | 168 ft | 15 kts | 346° |
| 2026-05-05 07:37 | -33.96822 | 18.59846 | 168 ft | 8 kts | 291° |
| 2026-05-05 07:37 | -33.96826 | 18.59790 | 168 ft | 0 kts | 252° |
| 2026-05-05 07:37 | -33.96829 | 18.59778 | 168 ft | 3 kts | 253° |
| 2026-05-05 07:37 | -33.96830 | 18.59771 | 168 ft | 0 kts | 254° |